Terminal Aerodrome Forecast
Issued by NWS

Home | Current Version | Previous Version | Text Only | Print | Product List | Glossary On
Versions: 1 2 3 4 5 6 7 8 9 10 11 12 13 14
000
FTUS41 KBTV 302300
TAFSLK
TAF
KSLK 302338Z 0100/0124 05008KT P6SM OVC070
     FM010400 VRB03KT 4SM BR BKN035
     FM010700 VRB03KT 3/4SM BR BKN008
     FM010800 00000KT 1/2SM FG BKN003
     FM011300 VRB03KT 2SM BR OVC003
     FM011500 07005KT P6SM BKN025
     FM011700 07006KT P6SM SCT030=

USA.gov is the U.S. government's official web portal to all federal, state and local government web resources and services.